GAL weather

Edward G. Pitka Sr Airport
Galena, Alaska, United States

Public forecast

Using degrees Fahrenheit for public forecast. Weather courtesy of forecast.io.

METAR (pilot weather report)

Retrieved 2019/05/27 06:56 UTC (19 minutes ago):

PAGA 270656Z AUTO 04004KT 10SM -RA FEW039 SCT050 OVC065 12/09 A2955

TAF (pilot weather forecast)

Retrieved 2019/05/27 06:27 UTC (48 minutes ago):

TAF PAGA 270524Z 2706/2806 VRB06KT P6SM VCSH SCT025 BKN035 OVC050 FM270900 12008KT 6SM -RA BR SCT015 BKN025 OVC035 FM271200 15012KT 4SM -RA BR BKN015 BKN025 OVC035 FM271800 18012KT 6SM -RA BR BKN025 BKN035 OVC050